sensor_id;sensor_type;location;lat;lon;timestamp;pressure;altitude;pressure_sealevel;temperature;humidity
70930;BME280;58588;48.102;19.682;2022-07-25T00:01:45;99585.94;;;16.62;78.20
70930;BME280;58588;48.102;19.682;2022-07-25T00:04:47;99589.56;;;16.56;77.92
70930;BME280;58588;48.102;19.682;2022-07-25T00:07:49;99590.22;;;16.51;78.39
70930;BME280;58588;48.102;19.682;2022-07-25T00:10:51;99589.00;;;16.47;77.93
70930;BME280;58588;48.102;19.682;2022-07-25T00:13:53;99596.38;;;16.40;82.55
70930;BME280;58588;48.102;19.682;2022-07-25T00:16:56;99584.66;;;16.40;76.74
70930;BME280;58588;48.102;19.682;2022-07-25T00:19:58;99591.00;;;16.33;75.64
70930;BME280;58588;48.102;19.682;2022-07-25T00:23:00;99591.03;;;16.27;76.82
70930;BME280;58588;48.102;19.682;2022-07-25T00:26:02;99592.09;;;16.26;75.66
70930;BME280;58588;48.102;19.682;2022-07-25T00:29:04;99591.53;;;16.17;72.97
70930;BME280;58588;48.102;19.682;2022-07-25T00:32:07;99590.91;;;16.15;74.86
70930;BME280;58588;48.102;19.682;2022-07-25T00:35:09;99588.91;;;16.04;76.47
70930;BME280;58588;48.102;19.682;2022-07-25T00:38:11;99581.22;;;15.94;74.19
70930;BME280;58588;48.102;19.682;2022-07-25T00:41:13;99591.91;;;15.89;71.65
70930;BME280;58588;48.102;19.682;2022-07-25T00:44:23;99580.88;;;15.84;73.61
70930;BME280;58588;48.102;19.682;2022-07-25T00:47:26;99591.16;;;15.75;71.94
70930;BME280;58588;48.102;19.682;2022-07-25T00:50:29;99591.41;;;15.67;69.80
70930;BME280;58588;48.102;19.682;2022-07-25T00:53:31;99590.56;;;15.60;68.38
70930;BME280;58588;48.102;19.682;2022-07-25T00:56:33;99592.88;;;15.63;69.00
70930;BME280;58588;48.102;19.682;2022-07-25T00:59:36;99591.81;;;15.58;72.55
70930;BME280;58588;48.102;19.682;2022-07-25T01:02:39;99588.88;;;15.59;74.55
70930;BME280;58588;48.102;19.682;2022-07-25T01:05:42;99592.88;;;15.57;74.08
70930;BME280;58588;48.102;19.682;2022-07-25T01:08:45;99591.22;;;15.62;70.96
70930;BME280;58588;48.102;19.682;2022-07-25T01:11:47;99590.34;;;15.62;71.22
70930;BME280;58588;48.102;19.682;2022-07-25T01:14:49;99589.56;;;15.55;68.93
70930;BME280;58588;48.102;19.682;2022-07-25T01:17:53;99589.81;;;15.40;69.35
70930;BME280;58588;48.102;19.682;2022-07-25T01:20:56;99578.13;;;15.39;72.66
70930;BME280;58588;48.102;19.682;2022-07-25T01:23:59;99587.34;;;15.32;70.15
70930;BME280;58588;48.102;19.682;2022-07-25T01:27:01;99585.72;;;15.24;69.22
70930;BME280;58588;48.102;19.682;2022-07-25T01:30:05;99582.56;;;15.20;68.69
70930;BME280;58588;48.102;19.682;2022-07-25T01:33:08;99586.13;;;15.14;66.29
70930;BME280;58588;48.102;19.682;2022-07-25T01:36:11;99584.25;;;15.15;68.23
70930;BME280;58588;48.102;19.682;2022-07-25T01:39:13;99586.16;;;15.08;66.26
70930;BME280;58588;48.102;19.682;2022-07-25T01:42:15;99584.91;;;15.04;64.95
70930;BME280;58588;48.102;19.682;2022-07-25T01:45:17;99587.25;;;14.93;64.09
70930;BME280;58588;48.102;19.682;2022-07-25T01:48:19;99588.72;;;14.89;63.23
70930;BME280;58588;48.102;19.682;2022-07-25T01:51:22;99596.63;;;14.97;65.19
70930;BME280;58588;48.102;19.682;2022-07-25T01:54:24;99586.41;;;14.99;66.52
70930;BME280;58588;48.102;19.682;2022-07-25T01:57:26;99584.31;;;14.95;63.04
70930;BME280;58588;48.102;19.682;2022-07-25T02:00:28;99582.22;;;14.90;64.42
70930;BME280;58588;48.102;19.682;2022-07-25T02:03:31;99588.09;;;14.87;66.26
70930;BME280;58588;48.102;19.682;2022-07-25T02:06:34;99582.28;;;14.70;63.99
70930;BME280;58588;48.102;19.682;2022-07-25T02:09:36;99579.34;;;14.59;62.39
70930;BME280;58588;48.102;19.682;2022-07-25T02:12:39;99578.09;;;14.55;62.33
70930;BME280;58588;48.102;19.682;2022-07-25T02:15:41;99572.66;;;14.55;60.69
70930;BME280;58588;48.102;19.682;2022-07-25T02:18:43;99576.44;;;14.54;62.75
70930;BME280;58588;48.102;19.682;2022-07-25T02:21:46;99569.97;;;14.48;64.18
70930;BME280;58588;48.102;19.682;2022-07-25T02:24:48;99579.16;;;14.54;61.00
70930;BME280;58588;48.102;19.682;2022-07-25T02:27:50;99575.59;;;14.53;65.43
70930;BME280;58588;48.102;19.682;2022-07-25T02:30:52;99568.28;;;14.54;63.38
70930;BME280;58588;48.102;19.682;2022-07-25T02:33:54;99576.66;;;14.52;63.94
70930;BME280;58588;48.102;19.682;2022-07-25T02:36:57;99574.09;;;14.44;64.50
70930;BME280;58588;48.102;19.682;2022-07-25T02:40:00;99576.41;;;14.34;64.83
70930;BME280;58588;48.102;19.682;2022-07-25T02:43:02;99578.47;;;14.32;61.41
70930;BME280;58588;48.102;19.682;2022-07-25T02:46:04;99578.25;;;14.27;62.72
70930;BME280;58588;48.102;19.682;2022-07-25T02:49:06;99585.78;;;14.18;62.83
70930;BME280;58588;48.102;19.682;2022-07-25T02:52:09;99589.31;;;14.18;60.83
70930;BME280;58588;48.102;19.682;2022-07-25T02:55:11;99585.78;;;14.18;60.87
70930;BME280;58588;48.102;19.682;2022-07-25T02:58:13;99588.28;;;14.13;61.44
70930;BME280;58588;48.102;19.682;2022-07-25T03:01:15;99593.28;;;14.09;59.01
70930;BME280;58588;48.102;19.682;2022-07-25T03:04:17;99591.59;;;14.02;61.24
70930;BME280;58588;48.102;19.682;2022-07-25T03:07:21;99589.31;;;14.05;59.43
70930;BME280;58588;48.102;19.682;2022-07-25T03:10:23;99589.91;;;14.01;59.91
70930;BME280;58588;48.102;19.682;2022-07-25T03:13:24;99595.31;;;13.94;59.94
70930;BME280;58588;48.102;19.682;2022-07-25T03:16:26;99601.34;;;13.89;59.75
70930;BME280;58588;48.102;19.682;2022-07-25T03:19:28;99603.22;;;13.82;60.36
70930;BME280;58588;48.102;19.682;2022-07-25T03:22:32;99604.06;;;13.83;61.02
70930;BME280;58588;48.102;19.682;2022-07-25T03:25:34;99606.56;;;13.84;59.25
70930;BME280;58588;48.102;19.682;2022-07-25T03:28:36;99596.75;;;13.83;59.36
70930;BME280;58588;48.102;19.682;2022-07-25T03:31:38;99607.81;;;13.88;58.14
70930;BME280;58588;48.102;19.682;2022-07-25T03:34:40;99603.44;;;13.87;58.49
70930;BME280;58588;48.102;19.682;2022-07-25T03:37:44;99606.16;;;13.87;59.79
70930;BME280;58588;48.102;19.682;2022-07-25T03:40:46;99604.72;;;13.91;57.62
70930;BME280;58588;48.102;19.682;2022-07-25T03:43:48;99592.00;;;13.99;60.41
70930;BME280;58588;48.102;19.682;2022-07-25T03:46:50;99596.97;;;13.88;56.91
70930;BME280;58588;48.102;19.682;2022-07-25T03:49:52;99601.59;;;13.95;54.72
70930;BME280;58588;48.102;19.682;2022-07-25T03:52:56;99596.59;;;13.98;57.47
70930;BME280;58588;48.102;19.682;2022-07-25T03:55:58;99598.25;;;13.99;58.00
70930;BME280;58588;48.102;19.682;2022-07-25T03:58:59;99601.81;;;14.00;57.28
70930;BME280;58588;48.102;19.682;2022-07-25T04:02:01;99600.16;;;14.05;58.89
70930;BME280;58588;48.102;19.682;2022-07-25T04:05:04;99592.25;;;14.10;59.36
70930;BME280;58588;48.102;19.682;2022-07-25T04:08:08;99595.56;;;14.06;58.77
70930;BME280;58588;48.102;19.682;2022-07-25T04:11:10;99601.59;;;14.08;58.67
70930;BME280;58588;48.102;19.682;2022-07-25T04:14:12;99600.78;;;14.07;59.83
70930;BME280;58588;48.102;19.682;2022-07-25T04:17:14;99606.63;;;14.11;60.29
70930;BME280;58588;48.102;19.682;2022-07-25T04:20:16;99606.63;;;14.17;57.96
70930;BME280;58588;48.102;19.682;2022-07-25T04:23:19;99610.41;;;14.23;59.05
70930;BME280;58588;48.102;19.682;2022-07-25T04:26:21;99612.91;;;14.31;58.82
70930;BME280;58588;48.102;19.682;2022-07-25T04:29:23;99613.13;;;14.36;58.74
70930;BME280;58588;48.102;19.682;2022-07-25T04:32:25;99611.25;;;14.43;58.56
70930;BME280;58588;48.102;19.682;2022-07-25T04:35:27;99610.44;;;14.56;60.51
70930;BME280;58588;48.102;19.682;2022-07-25T04:38:31;99604.59;;;14.59;62.72
70930;BME280;58588;48.102;19.682;2022-07-25T04:41:33;99604.16;;;14.62;64.21
70930;BME280;58588;48.102;19.682;2022-07-25T04:44:35;99608.13;;;14.73;64.28
70930;BME280;58588;48.102;19.682;2022-07-25T04:47:37;99610.00;;;14.86;70.63
70930;BME280;58588;48.102;19.682;2022-07-25T04:50:39;99613.56;;;14.99;72.14
70930;BME280;58588;48.102;19.682;2022-07-25T04:53:42;99619.56;;;15.08;72.64
70930;BME280;58588;48.102;19.682;2022-07-25T04:56:44;99616.84;;;15.15;69.23
70930;BME280;58588;48.102;19.682;2022-07-25T04:59:46;99619.75;;;15.26;69.26
70930;BME280;58588;48.102;19.682;2022-07-25T05:02:48;99624.75;;;15.36;68.02
70930;BME280;58588;48.102;19.682;2022-07-25T05:05:51;99616.34;;;15.44;69.39
70930;BME280;58588;48.102;19.682;2022-07-25T05:08:54;99612.97;;;15.56;72.40
70930;BME280;58588;48.102;19.682;2022-07-25T05:11:56;99616.94;;;15.66;72.78
70930;BME280;58588;48.102;19.682;2022-07-25T05:14:58;99623.97;;;15.81;77.02
70930;BME280;58588;48.102;19.682;2022-07-25T05:18:00;99616.56;;;15.94;79.65
70930;BME280;58588;48.102;19.682;2022-07-25T05:21:02;99605.22;;;16.04;81.33
70930;BME280;58588;48.102;19.682;2022-07-25T05:24:06;99610.56;;;16.17;82.11
70930;BME280;58588;48.102;19.682;2022-07-25T05:27:08;99603.78;;;16.33;82.50
70930;BME280;58588;48.102;19.682;2022-07-25T05:30:11;99607.22;;;16.47;83.95
70930;BME280;58588;48.102;19.682;2022-07-25T05:33:13;99604.00;;;16.56;84.90
70930;BME280;58588;48.102;19.682;2022-07-25T05:36:15;99604.75;;;16.70;85.80
70930;BME280;58588;48.102;19.682;2022-07-25T05:39:19;99607.13;;;16.85;85.39
70930;BME280;58588;48.102;19.682;2022-07-25T05:42:21;99596.47;;;17.02;86.99
70930;BME280;58588;48.102;19.682;2022-07-25T05:45:23;99596.72;;;17.19;87.54
70930;BME280;58588;48.102;19.682;2022-07-25T05:48:25;99603.41;;;17.41;86.89
70930;BME280;58588;48.102;19.682;2022-07-25T05:51:27;99592.47;;;17.59;87.86
70930;BME280;58588;48.102;19.682;2022-07-25T05:54:31;99601.03;;;17.81;87.66
70930;BME280;58588;48.102;19.682;2022-07-25T05:57:34;99601.44;;;17.97;87.44
70930;BME280;58588;48.102;19.682;2022-07-25T06:00:36;99604.63;;;18.24;87.61
70930;BME280;58588;48.102;19.682;2022-07-25T06:03:38;99609.91;;;18.49;87.38
70930;BME280;58588;48.102;19.682;2022-07-25T06:06:40;99613.00;;;18.64;87.63
70930;BME280;58588;48.102;19.682;2022-07-25T06:09:43;99607.59;;;18.87;86.96
70930;BME280;58588;48.102;19.682;2022-07-25T06:12:45;99602.13;;;19.11;87.17
70930;BME280;58588;48.102;19.682;2022-07-25T06:15:47;99601.28;;;19.34;87.35
70930;BME280;58588;48.102;19.682;2022-07-25T06:18:49;99604.66;;;19.52;86.13
70930;BME280;58588;48.102;19.682;2022-07-25T06:21:51;99612.13;;;19.81;85.28
70930;BME280;58588;48.102;19.682;2022-07-25T06:24:55;99600.47;;;20.02;85.22
70930;BME280;58588;48.102;19.682;2022-07-25T06:27:57;99603.34;;;20.24;83.80
70930;BME280;58588;48.102;19.682;2022-07-25T06:30:59;99595.03;;;20.47;85.08
70930;BME280;58588;48.102;19.682;2022-07-25T06:34:01;99603.00;;;20.49;83.89
70930;BME280;58588;48.102;19.682;2022-07-25T06:37:03;99593.44;;;20.68;82.34
70930;BME280;58588;48.102;19.682;2022-07-25T06:40:07;99592.09;;;21.04;83.51
70930;BME280;58588;48.102;19.682;2022-07-25T06:43:09;99597.53;;;21.21;82.20
70930;BME280;58588;48.102;19.682;2022-07-25T06:46:11;99586.38;;;21.28;79.98
70930;BME280;58588;48.102;19.682;2022-07-25T06:49:13;99586.78;;;21.53;75.98
70930;BME280;58588;48.102;19.682;2022-07-25T06:52:15;99589.69;;;21.69;75.59
70930;BME280;58588;48.102;19.682;2022-07-25T06:55:18;99580.69;;;22.00;75.50
70930;BME280;58588;48.102;19.682;2022-07-25T06:58:20;99575.25;;;22.27;73.29
70930;BME280;58588;48.102;19.682;2022-07-25T07:01:22;99573.16;;;22.39;69.93
70930;BME280;58588;48.102;19.682;2022-07-25T07:04:24;99575.78;;;22.56;72.35
70930;BME280;58588;48.102;19.682;2022-07-25T07:07:26;99577.00;;;22.76;68.67
70930;BME280;58588;48.102;19.682;2022-07-25T07:10:30;99570.06;;;23.00;65.78
70930;BME280;58588;48.102;19.682;2022-07-25T07:13:32;99568.03;;;23.28;64.92
70930;BME280;58588;48.102;19.682;2022-07-25T07:16:34;99575.50;;;23.42;61.46
70930;BME280;58588;48.102;19.682;2022-07-25T07:19:37;99568.13;;;23.53;59.39
70930;BME280;58588;48.102;19.682;2022-07-25T07:22:44;99567.97;;;23.85;61.23
70930;BME280;58588;48.102;19.682;2022-07-25T07:25:47;99568.03;;;24.11;56.90
70930;BME280;58588;48.102;19.682;2022-07-25T07:28:49;99568.38;;;24.40;56.68
70930;BME280;58588;48.102;19.682;2022-07-25T07:31:53;99557.38;;;24.60;54.54
70930;BME280;58588;48.102;19.682;2022-07-25T07:34:55;99553.75;;;24.90;54.42
70930;BME280;58588;48.102;19.682;2022-07-25T07:37:57;99560.28;;;25.25;55.53
70930;BME280;58588;48.102;19.682;2022-07-25T07:41:01;99562.16;;;25.45;53.18
70930;BME280;58588;48.102;19.682;2022-07-25T07:44:04;99556.34;;;25.51;52.69
70930;BME280;58588;48.102;19.682;2022-07-25T07:47:06;99552.44;;;25.57;51.95
70930;BME280;58588;48.102;19.682;2022-07-25T07:50:10;99553.75;;;25.70;49.63
70930;BME280;58588;48.102;19.682;2022-07-25T07:53:12;99544.97;;;26.12;49.79
70930;BME280;58588;48.102;19.682;2022-07-25T07:56:16;99552.84;;;26.34;50.34
70930;BME280;58588;48.102;19.682;2022-07-25T07:59:18;99547.94;;;26.60;48.38
70930;BME280;58588;48.102;19.682;2022-07-25T08:02:20;99550.06;;;26.68;49.15
70930;BME280;58588;48.102;19.682;2022-07-25T08:05:27;99548.06;;;26.74;47.79
70930;BME280;58588;48.102;19.682;2022-07-25T08:08:29;99547.97;;;26.84;42.37
70930;BME280;58588;48.102;19.682;2022-07-25T08:11:33;99547.06;;;27.23;41.27
70930;BME280;58588;48.102;19.682;2022-07-25T08:14:35;99542.53;;;27.51;39.37
70930;BME280;58588;48.102;19.682;2022-07-25T08:17:36;99543.97;;;27.48;38.98
70930;BME280;58588;48.102;19.682;2022-07-25T08:20:39;99538.72;;;27.71;43.60
70930;BME280;58588;48.102;19.682;2022-07-25T08:23:41;99544.09;;;27.81;42.99
70930;BME280;58588;48.102;19.682;2022-07-25T08:26:47;99528.25;;;27.87;38.75
70930;BME280;58588;48.102;19.682;2022-07-25T08:29:49;99527.56;;;28.33;40.26
70930;BME280;58588;48.102;19.682;2022-07-25T08:32:52;99524.78;;;28.65;39.79
70930;BME280;58588;48.102;19.682;2022-07-25T08:35:55;99519.94;;;29.03;40.06
70930;BME280;58588;48.102;19.682;2022-07-25T08:38:58;99518.25;;;28.89;37.46
70930;BME280;58588;48.102;19.682;2022-07-25T08:42:02;99524.84;;;28.46;36.75
70930;BME280;58588;48.102;19.682;2022-07-25T08:45:06;99513.00;;;28.41;41.83
70930;BME280;58588;48.102;19.682;2022-07-25T08:48:08;99512.59;;;28.80;40.72
70930;BME280;58588;48.102;19.682;2022-07-25T08:51:10;99507.91;;;29.22;40.17
70930;BME280;58588;48.102;19.682;2022-07-25T08:54:12;99508.44;;;28.64;35.69
70930;BME280;58588;48.102;19.682;2022-07-25T08:57:16;99501.34;;;28.58;36.18
70930;BME280;58588;48.102;19.682;2022-07-25T09:00:20;99505.31;;;29.25;38.56
70930;BME280;58588;48.102;19.682;2022-07-25T09:03:22;99500.59;;;29.53;35.08
70930;BME280;58588;48.102;19.682;2022-07-25T09:06:24;99498.44;;;29.37;34.81
70930;BME280;58588;48.102;19.682;2022-07-25T09:09:30;99495.69;;;29.23;38.14
70930;BME280;58588;48.102;19.682;2022-07-25T09:12:35;99496.63;;;29.82;33.82
70930;BME280;58588;48.102;19.682;2022-07-25T09:15:42;99495.41;;;30.10;36.32
70930;BME280;58588;48.102;19.682;2022-07-25T09:18:44;99491.34;;;29.30;33.47
70930;BME280;58588;48.102;19.682;2022-07-25T09:21:58;99488.41;;;29.77;34.37
70930;BME280;58588;48.102;19.682;2022-07-25T09:25:01;99478.31;;;30.03;33.19
70930;BME280;58588;48.102;19.682;2022-07-25T09:28:12;99484.03;;;30.21;34.21
70930;BME280;58588;48.102;19.682;2022-07-25T09:31:15;99486.47;;;30.67;34.21
70930;BME280;58588;48.102;19.682;2022-07-25T09:34:35;99477.66;;;30.43;33.99
70930;BME280;58588;48.102;19.682;2022-07-25T09:37:37;99477.56;;;30.79;34.04
70930;BME280;58588;48.102;19.682;2022-07-25T09:40:39;99476.13;;;30.90;32.08
70930;BME280;58588;48.102;19.682;2022-07-25T09:43:43;99473.97;;;30.87;32.47
70930;BME280;58588;48.102;19.682;2022-07-25T09:46:45;99465.53;;;31.09;33.08
70930;BME280;58588;48.102;19.682;2022-07-25T09:49:47;99469.75;;;31.38;32.45
70930;BME280;58588;48.102;19.682;2022-07-25T09:52:50;99471.28;;;31.96;32.91
70930;BME280;58588;48.102;19.682;2022-07-25T09:55:52;99461.06;;;31.48;32.35
70930;BME280;58588;48.102;19.682;2022-07-25T09:58:58;99462.59;;;31.89;32.27
70930;BME280;58588;48.102;19.682;2022-07-25T10:02:07;99458.31;;;31.65;34.40
70930;BME280;58588;48.102;19.682;2022-07-25T10:05:13;99441.25;;;31.50;31.69
70930;BME280;58588;48.102;19.682;2022-07-25T10:08:16;99434.66;;;31.28;35.04
70930;BME280;58588;48.102;19.682;2022-07-25T10:11:20;99439.41;;;30.79;33.65
70930;BME280;58588;48.102;19.682;2022-07-25T10:14:23;99436.72;;;31.14;32.83
70930;BME280;58588;48.102;19.682;2022-07-25T10:17:25;99435.41;;;31.11;32.75
70930;BME280;58588;48.102;19.682;2022-07-25T10:20:28;99442.22;;;31.54;33.76
70930;BME280;58588;48.102;19.682;2022-07-25T10:23:30;99434.38;;;32.08;33.68
70930;BME280;58588;48.102;19.682;2022-07-25T10:26:34;99428.28;;;31.45;30.97
70930;BME280;58588;48.102;19.682;2022-07-25T10:29:40;99423.09;;;31.04;32.85
70930;BME280;58588;48.102;19.682;2022-07-25T10:32:48;99420.25;;;32.13;32.43
70930;BME280;58588;48.102;19.682;2022-07-25T10:35:50;99417.31;;;31.57;32.49
70930;BME280;58588;48.102;19.682;2022-07-25T10:38:55;99406.81;;;31.46;31.41
70930;BME280;58588;48.102;19.682;2022-07-25T10:41:58;99396.97;;;31.48;32.26
70930;BME280;58588;48.102;19.682;2022-07-25T10:45:06;99396.88;;;31.05;31.52
70930;BME280;58588;48.102;19.682;2022-07-25T10:48:11;99393.38;;;31.48;32.07
70930;BME280;58588;48.102;19.682;2022-07-25T10:51:13;99383.72;;;31.80;31.29
70930;BME280;58588;48.102;19.682;2022-07-25T10:54:16;99380.53;;;32.16;30.96
70930;BME280;58588;48.102;19.682;2022-07-25T10:57:18;99375.34;;;31.45;30.94
70930;BME280;58588;48.102;19.682;2022-07-25T11:00:22;99366.88;;;30.84;32.11
70930;BME280;58588;48.102;19.682;2022-07-25T11:03:25;99360.09;;;31.86;30.70
70930;BME280;58588;48.102;19.682;2022-07-25T11:06:34;99353.97;;;32.10;30.71
70930;BME280;58588;48.102;19.682;2022-07-25T11:09:37;99357.59;;;32.87;30.41
70930;BME280;58588;48.102;19.682;2022-07-25T11:12:43;99347.16;;;31.38;30.95
70930;BME280;58588;48.102;19.682;2022-07-25T11:15:47;99349.19;;;32.19;31.96
70930;BME280;58588;48.102;19.682;2022-07-25T11:18:49;99340.34;;;32.93;29.87
70930;BME280;58588;48.102;19.682;2022-07-25T11:21:52;99334.38;;;33.45;31.53
70930;BME280;58588;48.102;19.682;2022-07-25T11:24:55;99334.72;;;33.44;27.78
70930;BME280;58588;48.102;19.682;2022-07-25T11:27:58;99330.69;;;33.12;28.04
70930;BME280;58588;48.102;19.682;2022-07-25T11:31:03;99331.59;;;33.99;28.40
70930;BME280;58588;48.102;19.682;2022-07-25T11:34:06;99326.25;;;33.73;26.48
70930;BME280;58588;48.102;19.682;2022-07-25T11:37:09;99324.03;;;33.79;30.01
70930;BME280;58588;48.102;19.682;2022-07-25T11:40:11;99312.97;;;33.82;28.81
70930;BME280;58588;48.102;19.682;2022-07-25T11:43:19;99313.06;;;33.74;27.13
70930;BME280;58588;48.102;19.682;2022-07-25T11:46:22;99309.63;;;33.35;25.65
70930;BME280;58588;48.102;19.682;2022-07-25T11:49:25;99308.09;;;34.25;27.98
70930;BME280;58588;48.102;19.682;2022-07-25T11:52:29;99297.56;;;34.10;26.20
70930;BME280;58588;48.102;19.682;2022-07-25T11:55:33;99286.69;;;33.63;25.17
70930;BME280;58588;48.102;19.682;2022-07-25T11:58:36;99290.13;;;34.38;26.99
70930;BME280;58588;48.102;19.682;2022-07-25T12:01:40;99291.06;;;33.72;26.49
70930;BME280;58588;48.102;19.682;2022-07-25T12:04:52;99287.38;;;34.50;25.64
70930;BME280;58588;48.102;19.682;2022-07-25T12:07:54;99277.31;;;34.74;24.69
70930;BME280;58588;48.102;19.682;2022-07-25T12:10:56;99278.06;;;35.51;25.82
70930;BME280;58588;48.102;19.682;2022-07-25T12:14:02;99273.69;;;34.73;25.01
70930;BME280;58588;48.102;19.682;2022-07-25T12:17:06;99264.22;;;34.78;24.28
70930;BME280;58588;48.102;19.682;2022-07-25T12:20:13;99265.34;;;35.42;24.08
70930;BME280;58588;48.102;19.682;2022-07-25T12:23:15;99257.91;;;35.61;22.57
70930;BME280;58588;48.102;19.682;2022-07-25T12:26:18;99248.97;;;35.72;23.49
70930;BME280;58588;48.102;19.682;2022-07-25T12:29:20;99247.88;;;35.76;21.83
70930;BME280;58588;48.102;19.682;2022-07-25T12:32:23;99251.59;;;34.96;22.16
70930;BME280;58588;48.102;19.682;2022-07-25T12:35:26;99237.81;;;34.91;21.86
70930;BME280;58588;48.102;19.682;2022-07-25T12:38:28;99237.50;;;35.49;23.21
70930;BME280;58588;48.102;19.682;2022-07-25T12:41:31;99234.97;;;35.87;24.61
70930;BME280;58588;48.102;19.682;2022-07-25T12:44:32;99226.28;;;35.92;23.92
70930;BME280;58588;48.102;19.682;2022-07-25T12:47:36;99225.38;;;36.04;21.68
70930;BME280;58588;48.102;19.682;2022-07-25T12:50:38;99225.19;;;35.97;22.69
70930;BME280;58588;48.102;19.682;2022-07-25T12:53:40;99216.69;;;36.09;20.84
70930;BME280;58588;48.102;19.682;2022-07-25T12:56:42;99218.09;;;36.51;20.93
70930;BME280;58588;48.102;19.682;2022-07-25T12:59:44;99213.59;;;36.14;20.85
70930;BME280;58588;48.102;19.682;2022-07-25T13:02:48;99205.69;;;35.29;20.70
70930;BME280;58588;48.102;19.682;2022-07-25T13:06:05;99201.03;;;36.08;23.05
70930;BME280;58588;48.102;19.682;2022-07-25T13:09:07;99195.75;;;35.91;20.69
70930;BME280;58588;48.102;19.682;2022-07-25T13:12:09;99190.31;;;36.30;22.35
70930;BME280;58588;48.102;19.682;2022-07-25T13:15:11;99188.56;;;36.76;20.64
70930;BME280;58588;48.102;19.682;2022-07-25T13:18:14;99183.28;;;35.29;20.96
70930;BME280;58588;48.102;19.682;2022-07-25T13:21:16;99176.13;;;36.07;22.22
70930;BME280;58588;48.102;19.682;2022-07-25T13:24:20;99162.75;;;36.00;20.33
70930;BME280;58588;48.102;19.682;2022-07-25T13:27:23;99164.34;;;35.10;20.15
70930;BME280;58588;48.102;19.682;2022-07-25T13:30:25;99157.50;;;36.34;22.51
70930;BME280;58588;48.102;19.682;2022-07-25T13:33:29;99150.88;;;36.07;20.19
70930;BME280;58588;48.102;19.682;2022-07-25T13:36:31;99156.91;;;36.25;22.29
70930;BME280;58588;48.102;19.682;2022-07-25T13:39:34;99144.97;;;36.12;22.43
70930;BME280;58588;48.102;19.682;2022-07-25T13:42:41;99154.00;;;36.21;20.27
70930;BME280;58588;48.102;19.682;2022-07-25T13:45:43;99142.78;;;36.21;21.03
70930;BME280;58588;48.102;19.682;2022-07-25T13:48:57;99136.28;;;35.54;20.73
70930;BME280;58588;48.102;19.682;2022-07-25T13:52:38;99141.28;;;34.88;20.97
70930;BME280;58588;48.102;19.682;2022-07-25T13:55:40;99126.84;;;35.30;20.39
70930;BME280;58588;48.102;19.682;2022-07-25T13:58:43;99114.19;;;35.36;20.98
70930;BME280;58588;48.102;19.682;2022-07-25T14:02:00;99129.78;;;36.48;23.58
70930;BME280;58588;48.102;19.682;2022-07-25T14:05:04;99116.56;;;36.49;19.56
70930;BME280;58588;48.102;19.682;2022-07-25T14:08:07;99124.00;;;36.80;21.14
70930;BME280;58588;48.102;19.682;2022-07-25T14:11:08;99117.44;;;36.72;22.14
70930;BME280;58588;48.102;19.682;2022-07-25T14:14:11;99119.56;;;36.40;20.75
70930;BME280;58588;48.102;19.682;2022-07-25T14:17:13;99115.13;;;36.58;20.55
70930;BME280;58588;48.102;19.682;2022-07-25T14:20:19;99111.16;;;36.59;20.11
70930;BME280;58588;48.102;19.682;2022-07-25T14:23:21;99096.63;;;36.03;19.94
70930;BME280;58588;48.102;19.682;2022-07-25T14:26:23;99104.88;;;35.80;20.77
70930;BME280;58588;48.102;19.682;2022-07-25T14:29:25;99100.97;;;35.21;20.56
70930;BME280;58588;48.102;19.682;2022-07-25T14:32:27;99093.38;;;35.85;20.15
70930;BME280;58588;48.102;19.682;2022-07-25T14:35:30;99088.78;;;35.77;21.13
70930;BME280;58588;48.102;19.682;2022-07-25T14:38:32;99085.78;;;36.75;21.77
70930;BME280;58588;48.102;19.682;2022-07-25T14:41:34;99088.16;;;36.73;20.05
70930;BME280;58588;48.102;19.682;2022-07-25T14:44:36;99087.66;;;36.67;20.68
70930;BME280;58588;48.102;19.682;2022-07-25T14:47:40;99077.38;;;37.17;20.18
70930;BME280;58588;48.102;19.682;2022-07-25T14:50:43;99073.94;;;37.05;19.38
70930;BME280;58588;48.102;19.682;2022-07-25T14:53:45;99073.53;;;37.26;22.52
70930;BME280;58588;48.102;19.682;2022-07-25T14:56:47;99070.50;;;37.84;19.97
70930;BME280;58588;48.102;19.682;2022-07-25T14:59:49;99066.56;;;37.65;20.72
70930;BME280;58588;48.102;19.682;2022-07-25T15:02:51;99068.56;;;37.88;20.80
70930;BME280;58588;48.102;19.682;2022-07-25T15:05:54;99053.31;;;36.97;19.56
70930;BME280;58588;48.102;19.682;2022-07-25T15:08:56;99051.25;;;37.63;20.24
70930;BME280;58588;48.102;19.682;2022-07-25T15:11:59;99052.13;;;38.20;20.78
70930;BME280;58588;48.102;19.682;2022-07-25T15:15:01;99052.84;;;38.43;18.80
70930;BME280;58588;48.102;19.682;2022-07-25T15:18:03;99031.91;;;38.41;18.23
70930;BME280;58588;48.102;19.682;2022-07-25T15:21:07;99033.22;;;38.84;18.56
70930;BME280;58588;48.102;19.682;2022-07-25T15:24:09;99026.00;;;38.23;16.57
70930;BME280;58588;48.102;19.682;2022-07-25T15:27:11;99018.72;;;38.86;17.18
70930;BME280;58588;48.102;19.682;2022-07-25T15:30:13;99020.84;;;38.96;17.26
70930;BME280;58588;48.102;19.682;2022-07-25T15:33:15;99018.84;;;37.99;17.28
70930;BME280;58588;48.102;19.682;2022-07-25T15:36:19;99020.31;;;37.89;18.51
70930;BME280;58588;48.102;19.682;2022-07-25T15:39:21;99012.69;;;38.50;19.92
70930;BME280;58588;48.102;19.682;2022-07-25T15:42:23;99014.97;;;39.12;18.32
70930;BME280;58588;48.102;19.682;2022-07-25T15:45:25;99003.00;;;39.22;16.71
70930;BME280;58588;48.102;19.682;2022-07-25T15:48:28;99008.13;;;38.72;17.50
70930;BME280;58588;48.102;19.682;2022-07-25T15:51:31;99006.84;;;39.51;18.69
70930;BME280;58588;48.102;19.682;2022-07-25T15:54:33;99001.56;;;39.46;15.25
70930;BME280;58588;48.102;19.682;2022-07-25T15:57:35;98999.56;;;39.46;16.56